Orion Explorer — LNDT — position and weather

sailwx.info

Track history (hours):
 
Tides and Currents Weather Stations Pressure Air Temp Water Temp Dewpoint Dewpoint Depression Visibility Wind Speed Wind Dir Waves Ship Positions

Orion Explorer

Last reported at 2018-Apr-19 23:00 UTC. Time now 2018-Apr-19 23:21 UTC.
Position N 70°50' E 025°60'.

Length 59 m; draft 4.5 m.

Type: Cargo ship. MMSI: 259496000.

Date/timePositionNaut miles runAvg speedWind from/ knotsBaromVisibWave heightAir tempDewpointWater temp
2018-Apr-19 23:00N 70°50' E 025°60'510.6
2018-Apr-19 22:30N 70°47' E 025°46'3 6.9
2018-Apr-19 22:00N 70°45' E 025°38'0 0.1
2018-Apr-19 21:30N 70°45' E 025°38'4 8.0
2018-Apr-19 21:00N 70°47' E 025°48'510.1
2018-Apr-19 20:30N 70°52' E 025°56'4 8.8
2018-Apr-19 20:00N 70°55' E 025°47'5 9.9
2018-Apr-19 19:30N 70°56' E 025°32'5 9.0
2018-Apr-19 19:00N 70°59' E 025°21'510.5
2018-Apr-19 18:30N 70°60' E 025°05'510.5
2018-Apr-19 17:59N 71°00' E 024°49'510.8
2018-Apr-19 17:30N 71°01' E 024°33'510.8
2018-Apr-19 17:00N 70°56' E 024°32'510.8
2018-Apr-19 16:30N 70°51' E 024°28'1 2.4
2018-Apr-19 16:00N 70°50' E 024°27'0 0.0
2018-Apr-19 15:29N 70°50' E 024°27'0 0.0
2018-Apr-19 15:00N 70°50' E 024°27'2 4.4
2018-Apr-19 14:30N 70°52' E 024°25'5 9.4
2018-Apr-19 13:59N 70°51' E 024°11'510.8
2018-Apr-19 13:29N 70°49' E 023°56'510.7
2018-Apr-19 13:00N 70°46' E 023°43'510.5
2018-Apr-19 12:30N 70°42' E 023°33'5 8.9
2018-Apr-19 11:59N 70°37' E 023°38'1 1.4
2018-Apr-19 11:30N 70°38' E 023°39'0 0.0
2018-Apr-19 11:00N 70°38' E 023°39'2 4.6
2018-Apr-19 10:30N 70°38' E 023°32'5 9.5
2018-Apr-19 10:00N 70°37' E 023°18'510.1
2018-Apr-19 09:29N 70°34' E 023°06'510.2
2018-Apr-19 09:00N 70°31' E 022°54'510.3
2018-Apr-19 08:30N 70°29' E 022°39'510.8
2018-Apr-19 07:59N 70°28' E 022°23'510.5
2018-Apr-19 07:30N 70°26' E 022°09'510.8
2018-Apr-19 07:00N 70°25' E 021°53'510.5
2018-Apr-19 06:30N 70°23' E 021°38'510.4
2018-Apr-19 06:00N 70°19' E 021°28'510.4
2018-Apr-19 05:30N 70°16' E 021°17'5 9.9
2018-Apr-19 05:00N 70°12' E 021°09'510.6
2018-Apr-19 04:29N 70°06' E 021°08'510.6
2018-Apr-19 04:00N 70°01' E 021°06'510.4
2018-Apr-19 03:29N 69°57' E 020°57'511.2
2018-Apr-19 03:00N 69°53' E 020°45'4 8.3
2018-Apr-19 02:30N 69°49' E 020°43'0 0.0
2018-Apr-19 01:59N 69°49' E 020°43'2 1.8
2018-Apr-19 00:50N 69°48' E 020°38'3 7.9
2018-Apr-19 00:29N 69°48' E 020°30'511.0
2018-Apr-19 00:00N 69°53' E 020°26'511.1
2018-Apr-18 23:30N 69°58' E 020°20'510.8
2018-Apr-18 23:00N 70°01' E 020°06'611.4
2018-Apr-18 22:30N 70°02' E 019°50'511.1
2018-Apr-18 22:00N 70°04' E 019°35'611.1
2018-Apr-18 21:30N 70°06' E 019°19'611.2
2018-Apr-18 21:00N 70°05' E 019°03'611.1
2018-Apr-18 20:30N 70°02' E 018°50'510.6
2018-Apr-18 20:00N 69°58' E 018°40'510.6
2018-Apr-18 19:30N 69°54' E 018°29'0 0.0
2018-Apr-18 19:00N 69°54' E 018°29'0 0.0
2018-Apr-18 18:30N 69°54' E 018°29'1 1.2
2018-Apr-18 18:00N 69°53' E 018°28'510.4
2018-Apr-18 17:30N 69°51' E 018°14'510.5
2018-Apr-18 17:00N 69°46' E 018°11'510.7
2018-Apr-18 16:30N 69°42' E 018°02'510.8
2018-Apr-18 16:00N 69°38' E 017°51'611.2
2018-Apr-18 15:30N 69°33' E 017°59'510.9
2018-Apr-18 15:00N 69°28' E 018°06'510.6
2018-Apr-18 14:30N 69°23' E 018°05'510.1
2018-Apr-18 14:00N 69°18' E 017°58'510.5
2018-Apr-18 13:29N 69°13' E 017°59'4 8.0
2018-Apr-18 12:59N 69°10' E 017°53'5 9.9
2018-Apr-18 12:30N 69°09' E 017°39'0 0.0
2018-Apr-18 12:00N 69°09' E 017°39'3 5.2
2018-Apr-18 11:30N 69°09' E 017°46'510.5
2018-Apr-18 11:00N 69°11' E 018°00'5 9.5
2018-Apr-18 10:30N 69°16' E 017°58'510.0
2018-Apr-18 10:00N 69°20' E 018°03'510.4
2018-Apr-18 09:30N 69°25' E 018°07'3 6.3
2018-Apr-18 09:00N 69°28' E 018°04'0 0.0
2018-Apr-18 08:29N 69°28' E 018°04'0 0.0
2018-Apr-18 07:59N 69°28' E 018°04'0 0.0
2018-Apr-18 07:30N 69°28' E 018°04'3 6.0
2018-Apr-18 07:00N 69°26' E 018°09'2 4.0
2018-Apr-18 06:30N 69°24' E 018°07'510.1
2018-Apr-18 05:59N 69°19' E 018°01'5 9.9
2018-Apr-18 05:30N 69°15' E 017°58'4 8.4
2018-Apr-18 04:59N 69°10' E 017°58'510.4
2018-Apr-18 04:30N 69°09' E 017°44'3 6.4
2018-Apr-18 04:00N 69°08' E 017°36'510.5
2018-Apr-18 03:30N 69°05' E 017°24'510.5
2018-Apr-18 02:59N 69°00' E 017°15'510.6
2018-Apr-18 02:29N 68°56' E 017°06'510.2
2018-Apr-18 02:00N 68°51' E 017°07'510.5
2018-Apr-18 01:30N 68°46' E 017°11'510.3
2018-Apr-18 00:59N 68°44' E 016°58'1 2.8
2018-Apr-18 00:30N 68°44' E 016°54'1 1.1
2018-Apr-17 23:59N 68°43' E 016°53'4 8.9
2018-Apr-17 23:30N 68°46' E 016°43'4 7.5
2018-Apr-17 22:59N 68°48' E 016°34'0 0.0
2018-Apr-17 22:30N 68°48' E 016°34'0 0.0
2018-Apr-17 22:00N 68°48' E 016°34'1 2.0
2018-Apr-17 21:29N 68°49' E 016°35'510.6
2018-Apr-17 21:00N 68°54' E 016°40'3 5.7
2018-Apr-17 20:30N 68°56' E 016°43'0 0.5
2018-Apr-17 19:59N 68°56' E 016°43'0 0.8
2018-Apr-17 19:30N 68°56' E 016°42'4 8.3
2018-Apr-17 19:00N 68°52' E 016°35'5 9.5
2018-Apr-17 18:28N 68°54' E 016°22'510.1
2018-Apr-17 18:00N 68°57' E 016°11'510.5
2018-Apr-17 17:30N 68°58' E 015°58'510.4
2018-Apr-17 16:59N 68°59' E 015°43'5 9.4
2018-Apr-17 16:29N 68°55' E 015°35'510.2
2018-Apr-17 16:00N 68°50' E 015°29'510.8
2018-Apr-17 15:30N 68°45' E 015°26'610.6
2018-Apr-17 14:58N 68°40' E 015°24'510.7
2018-Apr-17 14:28N 68°36' E 015°13'510.3
2018-Apr-17 13:59N 68°34' E 015°00'1 2.4
2018-Apr-17 13:30N 68°34' E 014°57'0 0.0
2018-Apr-17 13:00N 68°34' E 014°57'0 0.0
2018-Apr-17 12:29N 68°34' E 014°57'0 0.0
2018-Apr-17 12:00N 68°34' E 014°57'0 0.0
2018-Apr-17 11:30N 68°34' E 014°57'0 0.0
2018-Apr-17 11:00N 68°34' E 014°57'0 0.0
2018-Apr-17 10:30N 68°34' E 014°57'0 0.0
2018-Apr-17 09:59N 68°34' E 014°57'0 0.0
2018-Apr-17 09:30N 68°34' E 014°57'0 0.0
2018-Apr-17 09:00N 68°34' E 014°57'2 3.2
2018-Apr-17 08:30N 68°34' E 015°01'611.0
2018-Apr-17 08:00N 68°36' E 015°15'510.2
2018-Apr-17 07:30N 68°38' E 015°29'0 0.1
2018-Apr-17 06:59N 68°38' E 015°29'0 0.0
2018-Apr-17 06:30N 68°38' E 015°29'3 5.3
2018-Apr-17 06:00N 68°37' E 015°22'510.8
2018-Apr-17 05:30N 68°34' E 015°10'610.8
2018-Apr-17 04:59N 68°31' E 014°57'0 0.3
2018-Apr-17 04:30N 68°31' E 014°57'4 7.3
2018-Apr-17 04:00N 68°30' E 015°06'4 7.6
2018-Apr-17 03:30N 68°26' E 015°10'611.1
2018-Apr-17 03:00N 68°22' E 015°03'1 2.2
2018-Apr-17 02:30N 68°20' E 015°02'0 0.0
2018-Apr-17 02:00N 68°20' E 015°02'2 4.4
2018-Apr-17 01:29N 68°19' E 014°58'3 6.3
2018-Apr-17 01:00N 68°16' E 015°02'611.2
2018-Apr-17 00:29N 68°20' E 015°14'3 6.8
2018-Apr-17 00:00N 68°20' E 015°23'0 0.0
2018-Apr-16 23:30N 68°20' E 015°23'0 0.2
2018-Apr-16 23:00N 68°21' E 015°23'4 8.9
2018-Apr-16 22:30N 68°19' E 015°12'610.8
2018-Apr-16 22:00N 68°15' E 015°00'4 8.2
2018-Apr-16 21:30N 68°19' E 014°60'510.8
2018-Apr-16 21:00N 68°24' E 015°07'510.9
2018-Apr-16 20:30N 68°29' E 015°13'510.7
2018-Apr-16 20:00N 68°33' E 015°03'3 5.4
2018-Apr-16 19:30N 68°34' E 014°57'0 0.0
2018-Apr-16 18:59N 68°34' E 014°57'0 0.0
2018-Apr-16 18:30N 68°34' E 014°57'0 0.0
2018-Apr-16 18:00N 68°34' E 014°57'0 0.0
2018-Apr-16 17:30N 68°34' E 014°57'0 0.0
2018-Apr-16 17:00N 68°35' E 014°57'0 0.0
2018-Apr-16 16:30N 68°34' E 014°57'0 0.0
2018-Apr-16 16:00N 68°34' E 014°57'0 0.0
2018-Apr-16 15:30N 68°34' E 014°57'0 0.0
2018-Apr-16 15:00N 68°34' E 014°57'0 0.0
2018-Apr-16 14:30N 68°34' E 014°57'0 0.0
2018-Apr-16 14:00N 68°34' E 014°57'0 0.0
2018-Apr-16 13:30N 68°34' E 014°57'0 0.0
2018-Apr-16 13:00N 68°34' E 014°57'0 0.0
2018-Apr-16 12:29N 68°34' E 014°57'0 0.0
2018-Apr-16 11:59N 68°34' E 014°57'0 0.0
2018-Apr-16 11:30N 68°34' E 014°57'0 0.0
2018-Apr-16 11:00N 68°34' E 014°57'0 0.0
2018-Apr-16 10:30N 68°34' E 014°57'0 0.0
2018-Apr-16 09:59N 68°34' E 014°57'0 0.0
2018-Apr-16 09:29N 68°34' E 014°57'0 0.0
2018-Apr-16 09:00N 68°34' E 014°57'0 0.0
2018-Apr-16 08:28N 68°34' E 014°57'0 0.0
2018-Apr-16 07:59N 68°34' E 014°57'0 0.0
2018-Apr-16 07:29N 68°34' E 014°57'0 0.0
2018-Apr-16 06:59N 68°34' E 014°57'0 0.0
2018-Apr-16 06:29N 68°34' E 014°57'0 0.0
2018-Apr-16 05:59N 68°34' E 014°57'0 0.0
2018-Apr-16 05:30N 68°34' E 014°57'1 1.7
2018-Apr-16 05:00N 68°34' E 014°55'0 0.0
2018-Apr-16 04:30N 68°34' E 014°55'0 0.0
2018-Apr-16 04:00N 68°34' E 014°55'0 0.0
2018-Apr-16 03:30N 68°34' E 014°55'0 0.0
2018-Apr-16 03:00N 68°34' E 014°55'0 0.0
2018-Apr-16 02:30N 68°34' E 014°55'0 0.0
2018-Apr-16 02:00N 68°34' E 014°55'0 0.0
2018-Apr-16 01:30N 68°34' E 014°55'0 0.0
2018-Apr-16 01:00N 68°34' E 014°55'0 0.0
2018-Apr-16 00:30N 68°34' E 014°55'0 0.0
2018-Apr-16 00:00N 68°34' E 014°55'0 0.0
2018-Apr-15 23:30N 68°34' E 014°55'0 0.0
2018-Apr-15 23:00N 68°34' E 014°55'0 0.0
2018-Apr-15 22:29N 68°34' E 014°55'0 0.0
2018-Apr-15 22:00N 68°34' E 014°55'0 0.0
2018-Apr-15 21:30N 68°34' E 014°55'0 0.0
2018-Apr-15 21:00N 68°34' E 014°55'0 0.0
2018-Apr-15 20:29N 68°34' E 014°55'0 0.0
2018-Apr-15 20:00N 68°34' E 014°55'0 0.0
2018-Apr-15 19:30N 68°34' E 014°55'0 0.0
2018-Apr-15 19:00N 68°34' E 014°55'0 0.0
2018-Apr-15 18:30N 68°34' E 014°55'0 0.0
2018-Apr-15 18:00N 68°34' E 014°55'0 0.0
2018-Apr-15 17:30N 68°34' E 014°55'0 0.0
2018-Apr-15 17:00N 68°34' E 014°55'0 0.0
2018-Apr-15 16:29N 68°34' E 014°55'0 0.0
2018-Apr-15 16:00N 68°34' E 014°55'0 0.0
2018-Apr-15 15:30N 68°34' E 014°55'0 0.0
2018-Apr-15 15:00N 68°34' E 014°55'0 0.0
2018-Apr-15 14:30N 68°34' E 014°55'0 0.0
2018-Apr-15 14:00N 68°34' E 014°55'0 0.0
2018-Apr-15 13:30N 68°34' E 014°55'0 0.0
2018-Apr-15 13:00N 68°34' E 014°55'0 0.0
2018-Apr-15 12:30N 68°34' E 014°55'0 0.0
2018-Apr-15 12:00N 68°34' E 014°55'0 0.0
2018-Apr-15 11:30N 68°34' E 014°55'0 0.0
2018-Apr-15 10:59N 68°34' E 014°55'0 0.0
2018-Apr-15 10:28N 68°34' E 014°55'0 0.0
2018-Apr-15 10:00N 68°34' E 014°55'0 0.0
2018-Apr-15 09:29N 68°34' E 014°55'0 0.0
2018-Apr-15 08:59N 68°34' E 014°55'0 0.0
2018-Apr-15 08:29N 68°34' E 014°55'0 0.0
2018-Apr-15 08:00N 68°34' E 014°55'0 0.0
2018-Apr-15 07:30N 68°34' E 014°55'0 0.0
2018-Apr-15 07:00N 68°34' E 014°55'0 0.0
2018-Apr-15 06:30N 68°34' E 014°55'0 0.0
2018-Apr-15 06:00N 68°34' E 014°55'0 0.0
2018-Apr-15 05:30N 68°34' E 014°55'0 0.0
2018-Apr-15 05:00N 68°34' E 014°55'0 0.0
2018-Apr-15 04:30N 68°34' E 014°55'0 0.0
2018-Apr-15 04:00N 68°34' E 014°55'0 0.0
2018-Apr-15 03:30N 68°34' E 014°55'0 0.0
2018-Apr-15 03:00N 68°34' E 014°55'0 0.0
2018-Apr-15 02:30N 68°34' E 014°55'0 0.0
2018-Apr-15 01:59N 68°34' E 014°55'0 0.0
2018-Apr-15 01:30N 68°34' E 014°55'0 0.0
2018-Apr-15 01:00N 68°34' E 014°55'0 0.0
2018-Apr-15 00:30N 68°34' E 014°55'0 0.0
2018-Apr-15 00:00N 68°34' E 014°55'0 0.0
2018-Apr-14 23:30N 68°34' E 014°55'0 0.0
2018-Apr-14 23:00N 68°34' E 014°55'0 0.0
2018-Apr-14 22:30N 68°34' E 014°55'0 0.0
2018-Apr-14 22:00N 68°34' E 014°55'0 0.0
2018-Apr-14 21:29N 68°34' E 014°55'0 0.0
2018-Apr-14 20:58N 68°34' E 014°55'0 0.0
2018-Apr-14 20:30N 68°34' E 014°55'0 0.0
2018-Apr-14 19:59N 68°34' E 014°55'0 0.0
2018-Apr-14 19:29N 68°34' E 014°55'0 0.0
2018-Apr-14 19:00N 68°34' E 014°55'0 0.0
2018-Apr-14 18:30N 68°34' E 014°55'0 0.0
2018-Apr-14 18:00N 68°34' E 014°55'0 0.0
2018-Apr-14 17:30N 68°34' E 014°55'0 0.0
2018-Apr-14 17:00N 68°34' E 014°55'0 0.0
2018-Apr-14 16:30N 68°34' E 014°55'0 0.0
2018-Apr-14 16:00N 68°34' E 014°55'0 0.0
2018-Apr-14 15:30N 68°34' E 014°55'0 0.0
2018-Apr-14 15:00N 68°34' E 014°55'0 0.0
2018-Apr-14 14:30N 68°34' E 014°55'0 0.0
2018-Apr-14 14:00N 68°34' E 014°55'0 0.0
2018-Apr-14 13:29N 68°34' E 014°55'0 0.0
2018-Apr-14 13:00N 68°34' E 014°55'0 0.0
2018-Apr-14 12:30N 68°34' E 014°55'0 0.0
2018-Apr-14 11:59N 68°34' E 014°55'0 0.0
2018-Apr-14 11:30N 68°34' E 014°55'0 0.0
2018-Apr-14 11:00N 68°34' E 014°55'0 0.0
2018-Apr-14 10:30N 68°34' E 014°55'0 0.0
2018-Apr-14 10:00N 68°34' E 014°55'0 0.0
2018-Apr-14 09:30N 68°34' E 014°55'0 0.0
2018-Apr-14 09:00N 68°34' E 014°55'0 0.0
2018-Apr-14 08:30N 68°34' E 014°55'0 0.0
2018-Apr-14 08:00N 68°34' E 014°55'0 0.0
2018-Apr-14 07:30N 68°34' E 014°55'0 0.0
2018-Apr-14 07:00N 68°34' E 014°55'0 0.0
2018-Apr-14 06:30N 68°34' E 014°55'0 0.0
2018-Apr-14 06:00N 68°34' E 014°55'0 0.0
2018-Apr-14 05:30N 68°34' E 014°55'0 0.0
2018-Apr-14 05:00N 68°34' E 014°55'0 0.0
2018-Apr-14 04:30N 68°34' E 014°55'0 0.0
2018-Apr-14 04:00N 68°34' E 014°55'0 0.0
2018-Apr-14 03:30N 68°34' E 014°55'0 0.0
2018-Apr-14 03:00N 68°34' E 014°55'0 0.0
2018-Apr-14 02:30N 68°34' E 014°55'0 0.0
2018-Apr-14 02:00N 68°34' E 014°55'0 0.0
2018-Apr-14 01:30N 68°34' E 014°55'0 0.0
2018-Apr-14 01:00N 68°34' E 014°55'0 0.0
2018-Apr-14 00:30N 68°34' E 014°55'0 0.0
2018-Apr-14 00:00N 68°34' E 014°55'0 0.0
2018-Apr-13 23:29N 68°34' E 014°55'0 0.0
2018-Apr-13 23:00N 68°34' E 014°55'0 0.0
2018-Apr-13 22:30N 68°34' E 014°55'0 0.0
2018-Apr-13 22:00N 68°34' E 014°55'0 0.0
2018-Apr-13 21:30N 68°34' E 014°55'0 0.0
2018-Apr-13 21:00N 68°34' E 014°55'0 0.0
2018-Apr-13 20:30N 68°34' E 014°55'0 0.0
2018-Apr-13 20:00N 68°34' E 014°55'0 0.0
2018-Apr-13 19:30N 68°34' E 014°55'0 0.0
2018-Apr-13 18:59N 68°34' E 014°55'0 0.0
2018-Apr-13 18:30N 68°34' E 014°55'0 0.0
2018-Apr-13 18:00N 68°34' E 014°55'0 0.0
2018-Apr-13 17:30N 68°34' E 014°55'0 0.0
2018-Apr-13 17:00N 68°34' E 014°55'0 0.0
2018-Apr-13 16:29N 68°34' E 014°55'0 0.0
2018-Apr-13 16:00N 68°34' E 014°55'0 0.0
2018-Apr-13 15:30N 68°34' E 014°55'0 0.0
2018-Apr-13 15:00N 68°34' E 014°55'0 0.0
2018-Apr-13 14:30N 68°34' E 014°55'0 0.0
2018-Apr-13 14:00N 68°34' E 014°55'0 0.0
2018-Apr-13 13:30N 68°34' E 014°55'0 0.0
2018-Apr-13 13:00N 68°34' E 014°55'0 0.0
2018-Apr-13 12:29N 68°34' E 014°55'0 0.0
2018-Apr-13 11:59N 68°34' E 014°55'0 0.0
2018-Apr-13 11:29N 68°34' E 014°55'3 6.8
2018-Apr-13 11:00N 68°35' E 015°04'511.1
2018-Apr-13 10:30N 68°37' E 015°17'510.6
2018-Apr-13 10:00N 68°41' E 015°26'510.2
2018-Apr-13 09:30N 68°46' E 015°26'610.9
2018-Apr-13 08:59N 68°52' E 015°30'510.9
2018-Apr-13 08:30N 68°57' E 015°36'5 9.5
2018-Apr-13 08:00N 68°59' E 015°48'610.9
2018-Apr-13 07:29N 68°58' E 016°03'511.1
2018-Apr-13 07:00N 68°56' E 016°17'611.2
2018-Apr-13 06:30N 68°52' E 016°30'5 9.8
2018-Apr-13 06:00N 68°55' E 016°41'1 1.3
2018-Apr-13 05:30N 68°56' E 016°42'1 1.2
2018-Apr-13 04:59N 68°56' E 016°43'0 0.0
2018-Apr-13 04:30N 68°56' E 016°43'4 8.5
2018-Apr-13 04:00N 68°57' E 016°55'611.1
2018-Apr-13 03:30N 68°59' E 017°09'510.7
2018-Apr-13 03:00N 69°03' E 017°20'510.7
2018-Apr-13 02:30N 69°06' E 017°32'611.1
2018-Apr-13 01:59N 69°09' E 017°46'511.1
2018-Apr-13 01:30N 69°11' E 017°60'510.0
2018-Apr-13 01:00N 69°16' E 017°58'510.0
2018-Apr-13 00:30N 69°21' E 018°04'510.0
2018-Apr-12 23:59N 69°26' E 018°07'5 9.5
2018-Apr-12 23:30N 69°29' E 018°14'611.1
2018-Apr-12 23:00N 69°32' E 018°29'511.0
2018-Apr-12 22:30N 69°33' E 018°44'5 9.5
2018-Apr-12 22:00N 69°37' E 018°54'611.0
2018-Apr-12 21:29N 69°41' E 019°02'510.6
2018-Apr-12 21:00N 69°46' E 019°10'510.7
2018-Apr-12 20:30N 69°48' E 019°24'510.7
2018-Apr-12 20:00N 69°50' E 019°38'510.7
2018-Apr-12 19:29N 69°53' E 019°52'510.9
2018-Apr-12 19:00N 69°56' E 020°04'510.6
2018-Apr-12 18:30N 69°59' E 020°17'510.7
2018-Apr-12 18:00N 70°01' E 020°32'611.0
2018-Apr-12 17:30N 70°03' E 020°47'510.8
2018-Apr-12 16:59N 70°07' E 020°59'510.9
2018-Apr-12 16:29N 70°11' E 021°06'510.5
2018-Apr-12 16:00N 70°15' E 021°15'611.0
2018-Apr-12 15:30N 70°19' E 021°27'510.8
2018-Apr-12 15:00N 70°23' E 021°39'4 8.9
2018-Apr-12 14:30N 70°23' E 021°52'510.0
2018-Apr-12 13:59N 70°20' E 022°06'5 9.9
2018-Apr-12 13:29N 70°18' E 022°19'510.3
2018-Apr-12 13:00N 70°16' E 022°32'510.7
2018-Apr-12 12:30N 70°14' E 022°47'510.8
2018-Apr-12 12:00N 70°14' E 023°03'510.9
2018-Apr-12 11:30N 70°14' E 023°19'0 0.6
2018-Apr-12 10:59N 70°14' E 023°20'2 4.2
2018-Apr-12 10:30N 70°14' E 023°14'611.1
2018-Apr-12 10:00N 70°14' E 022°57'611.2
2018-Apr-12 09:30N 70°15' E 022°41'611.4
2018-Apr-12 09:00N 70°17' E 022°25'611.4
2018-Apr-12 08:29N 70°20' E 022°10'611.5
2018-Apr-12 08:00N 70°22' E 021°55'610.9
2018-Apr-12 07:30N 70°24' E 021°40'611.3
2018-Apr-12 06:58N 70°19' E 021°28'511.2
2018-Apr-12 06:29N 70°16' E 021°16'5 9.8
2018-Apr-12 06:00N 70°12' E 021°09'510.5
2018-Apr-12 05:30N 70°06' E 021°08'510.7
2018-Apr-12 05:00N 70°01' E 021°06'510.7
2018-Apr-12 04:30N 69°57' E 020°57'511.0
2018-Apr-12 04:00N 69°53' E 020°45'2 3.5
2018-Apr-12 03:30N 69°52' E 020°42'0 0.1
2018-Apr-12 02:59N 69°52' E 020°42'3 6.3
2018-Apr-12 02:30N 69°54' E 020°45'510.8
2018-Apr-12 02:00N 69°57' E 020°32'611.1
2018-Apr-12 01:30N 69°59' E 020°16'611.6
2018-Apr-12 01:00N 69°56' E 020°03'611.4
2018-Apr-12 00:29N 69°52' E 019°49'611.2
2018-Apr-11 23:59N 69°49' E 019°34'511.4
2018-Apr-11 23:30N 69°48' E 019°19'611.3
2018-Apr-11 22:58N 69°44' E 019°05'511.1
2018-Apr-11 22:30N 69°39' E 018°59'510.7
2018-Apr-11 22:00N 69°35' E 018°50'510.8
2018-Apr-11 21:30N 69°33' E 018°36'611.4
2018-Apr-11 21:00N 69°30' E 018°21'611.1
2018-Apr-11 20:30N 69°28' E 018°07'611.1
2018-Apr-11 20:00N 69°22' E 018°06'510.4
2018-Apr-11 19:30N 69°18' E 017°58'510.8
2018-Apr-11 19:00N 69°12' E 018°00'5 9.2
2018-Apr-11 18:30N 69°09' E 017°50'4 8.0
2018-Apr-11 18:00N 69°09' E 017°39'0 0.6
2018-Apr-11 17:29N 69°08' E 017°39'511.1
2018-Apr-11 16:59N 69°05' E 017°26'510.9
2018-Apr-11 16:29N 69°01' E 017°17'511.2
2018-Apr-11 16:00N 68°57' E 017°07'611.2
2018-Apr-11 15:30N 68°52' E 016°58'611.1
2018-Apr-11 14:59N 68°48' E 016°50'511.0
2018-Apr-11 14:30N 68°43' E 016°43'611.2
2018-Apr-11 14:00N 68°38' E 016°35'510.5
2018-Apr-11 13:29N 68°33' E 016°28'510.6
2018-Apr-11 13:00N 68°33' E 016°14'610.9
2018-Apr-11 12:30N 68°28' E 016°07'511.0
2018-Apr-11 12:00N 68°23' E 016°02'510.5
2018-Apr-11 11:30N 68°18' E 016°02'610.9
2018-Apr-11 11:00N 68°13' E 016°08'610.9
2018-Apr-11 10:29N 68°08' E 016°14'4 7.2
2018-Apr-11 10:00N 68°05' E 016°19'0 0.0
2018-Apr-11 09:30N 68°05' E 016°19'2 4.8
2018-Apr-11 09:00N 68°07' E 016°16'4 8.5
2018-Apr-11 08:30N 68°10' E 016°09'0 0.0
2018-Apr-11 08:00N 68°10' E 016°09'0 0.0
2018-Apr-11 07:30N 68°10' E 016°09'2 3.1
2018-Apr-11 07:00N 68°12' E 016°10'510.6
2018-Apr-11 06:30N 68°16' E 016°02'511.0
2018-Apr-11 06:00N 68°17' E 015°48'611.0
2018-Apr-11 05:30N 68°18' E 015°33'4 8.2
2018-Apr-11 05:00N 68°20' E 015°23'0 0.0
2018-Apr-11 04:30N 68°20' E 015°23'2 4.1
2018-Apr-11 04:00N 68°22' E 015°18'1 2.0
2018-Apr-11 03:30N 68°23' E 015°19'3 5.0
2018-Apr-11 02:59N 68°20' E 015°15'510.8
2018-Apr-11 02:30N 68°17' E 015°05'3 5.2
2018-Apr-11 01:59N 68°18' E 014°58'3 6.3
2018-Apr-11 01:30N 68°20' E 015°02'0 0.0
2018-Apr-11 01:00N 68°20' E 015°02'0 0.0
2018-Apr-11 00:29N 68°20' E 015°02'4 8.8
2018-Apr-10 23:59N 68°25' E 015°07'510.0
2018-Apr-10 23:29N 68°29' E 015°13'510.4
2018-Apr-10 23:00N 68°31' E 014°60'1 2.0
2018-Apr-10 22:30N 68°31' E 014°57'0 0.0
2018-Apr-10 22:00N 68°31' E 014°57'4 7.2
2018-Apr-10 21:30N 68°34' E 015°02'2 4.1
2018-Apr-10 21:00N 68°34' E 014°57'0 0.0
2018-Apr-10 20:30N 68°34' E 014°57'0 0.0
2018-Apr-10 20:00N 68°34' E 014°57'0 0.0
2018-Apr-10 19:30N 68°34' E 014°57'0 0.0
2018-Apr-10 19:00N 68°34' E 014°57'0 0.0
2018-Apr-10 18:30N 68°34' E 014°57'0 0.0
2018-Apr-10 18:00N 68°34' E 014°57'0 0.0
2018-Apr-10 17:30N 68°34' E 014°57'1 1.7
2018-Apr-10 17:00N 68°34' E 014°55'0 0.0
2018-Apr-10 16:29N 68°34' E 014°55'0 0.0
2018-Apr-10 16:00N 68°34' E 014°55'0 0.0
2018-Apr-10 15:30N 68°34' E 014°55'0 0.0
2018-Apr-10 15:00N 68°34' E 014°55'0 0.0
2018-Apr-10 14:30N 68°34' E 014°55'0 0.0
2018-Apr-10 14:00N 68°34' E 014°55'0 0.0
2018-Apr-10 13:30N 68°34' E 014°55'0 0.0
2018-Apr-10 13:00N 68°34' E 014°55'0 0.0
2018-Apr-10 12:30N 68°34' E 014°55'0 0.0
2018-Apr-10 12:00N 68°34' E 014°55'0 0.0
2018-Apr-10 11:30N 68°34' E 014°55'0 0.0
2018-Apr-10 11:00N 68°34' E 014°55'0 0.0
2018-Apr-10 10:30N 68°34' E 014°55'0 0.0
2018-Apr-10 10:00N 68°34' E 014°55'0 0.0
2018-Apr-10 09:29N 68°34' E 014°55'0 0.0
2018-Apr-10 09:00N 68°34' E 014°55'0 0.0
2018-Apr-10 08:30N 68°34' E 014°55'0 0.0
2018-Apr-10 08:00N 68°34' E 014°55'0 0.0
2018-Apr-10 07:30N 68°34' E 014°55'0 0.0
2018-Apr-10 07:00N 68°34' E 014°55'0 0.0
2018-Apr-10 06:30N 68°34' E 014°55'0 0.0
2018-Apr-10 05:59N 68°34' E 014°55'0 0.0
2018-Apr-10 05:30N 68°34' E 014°55'0 0.0
2018-Apr-10 05:00N 68°34' E 014°55'0 0.0
2018-Apr-10 04:29N 68°34' E 014°55'0 0.0
2018-Apr-10 03:59N 68°34' E 014°55'0 0.0
2018-Apr-10 03:30N 68°34' E 014°55'0 0.0
2018-Apr-10 03:00N 68°34' E 014°55'0 0.0
2018-Apr-10 02:30N 68°34' E 014°55'0 0.0
2018-Apr-10 02:00N 68°34' E 014°55'0 0.0
2018-Apr-10 01:30N 68°34' E 014°55'0 0.0
2018-Apr-10 01:00N 68°34' E 014°55'0 0.0
2018-Apr-10 00:30N 68°34' E 014°55'0 0.0
2018-Apr-10 00:00N 68°34' E 014°55'0 0.0
2018-Apr-09 23:30N 68°34' E 014°55'0 0.0
2018-Apr-09 23:00N 68°34' E 014°55'  
Track history (hours):
 
Tides and Currents Weather Stations Pressure Air Temp Water Temp Dewpoint Dewpoint Depression Visibility Wind Speed Wind Dir Waves Ship Positions

Orion Explorer

Last reported at 2018-Apr-19 23:00 UTC. Time now 2018-Apr-19 23:21 UTC.
Position N 70°50' E 025°60'.

Length 59 m; draft 4.5 m.

Type: Cargo ship. MMSI: 259496000.

Date/timePositionNaut miles runAvg speedWind from/ knotsBaromVisibWave heightAir tempDewpointWater temp
2018-Apr-19 23:00N 70°50' E 025°60'510.6
2018-Apr-19 22:30N 70°47' E 025°46'3 6.9
2018-Apr-19 22:00N 70°45' E 025°38'0 0.1
2018-Apr-19 21:30N 70°45' E 025°38'4 8.0
2018-Apr-19 21:00N 70°47' E 025°48'510.1
2018-Apr-19 20:30N 70°52' E 025°56'4 8.8
2018-Apr-19 20:00N 70°55' E 025°47'5 9.9
2018-Apr-19 19:30N 70°56' E 025°32'5 9.0
2018-Apr-19 19:00N 70°59' E 025°21'510.5
2018-Apr-19 18:30N 70°60' E 025°05'510.5
2018-Apr-19 17:59N 71°00' E 024°49'510.8
2018-Apr-19 17:30N 71°01' E 024°33'510.8
2018-Apr-19 17:00N 70°56' E 024°32'510.8
2018-Apr-19 16:30N 70°51' E 024°28'1 2.4
2018-Apr-19 16:00N 70°50' E 024°27'0 0.0
2018-Apr-19 15:29N 70°50' E 024°27'0 0.0
2018-Apr-19 15:00N 70°50' E 024°27'2 4.4
2018-Apr-19 14:30N 70°52' E 024°25'5 9.4
2018-Apr-19 13:59N 70°51' E 024°11'510.8
2018-Apr-19 13:29N 70°49' E 023°56'510.7
2018-Apr-19 13:00N 70°46' E 023°43'510.5
2018-Apr-19 12:30N 70°42' E 023°33'5 8.9
2018-Apr-19 11:59N 70°37' E 023°38'1 1.4
2018-Apr-19 11:30N 70°38' E 023°39'0 0.0
2018-Apr-19 11:00N 70°38' E 023°39'2 4.6
2018-Apr-19 10:30N 70°38' E 023°32'5 9.5
2018-Apr-19 10:00N 70°37' E 023°18'510.1
2018-Apr-19 09:29N 70°34' E 023°06'510.2
2018-Apr-19 09:00N 70°31' E 022°54'510.3
2018-Apr-19 08:30N 70°29' E 022°39'510.8
2018-Apr-19 07:59N 70°28' E 022°23'510.5
2018-Apr-19 07:30N 70°26' E 022°09'510.8
2018-Apr-19 07:00N 70°25' E 021°53'510.5
2018-Apr-19 06:30N 70°23' E 021°38'510.4
2018-Apr-19 06:00N 70°19' E 021°28'510.4
2018-Apr-19 05:30N 70°16' E 021°17'5 9.9
2018-Apr-19 05:00N 70°12' E 021°09'510.6
2018-Apr-19 04:29N 70°06' E 021°08'510.6
2018-Apr-19 04:00N 70°01' E 021°06'510.4
2018-Apr-19 03:29N 69°57' E 020°57'511.2
2018-Apr-19 03:00N 69°53' E 020°45'4 8.3
2018-Apr-19 02:30N 69°49' E 020°43'0 0.0
2018-Apr-19 01:59N 69°49' E 020°43'2 1.8
2018-Apr-19 00:50N 69°48' E 020°38'3 7.9
2018-Apr-19 00:29N 69°48' E 020°30'511.0
2018-Apr-19 00:00N 69°53' E 020°26'511.1
2018-Apr-18 23:30N 69°58' E 020°20'510.8
2018-Apr-18 23:00N 70°01' E 020°06'611.4
2018-Apr-18 22:30N 70°02' E 019°50'511.1
2018-Apr-18 22:00N 70°04' E 019°35'611.1
2018-Apr-18 21:30N 70°06' E 019°19'611.2
2018-Apr-18 21:00N 70°05' E 019°03'611.1
2018-Apr-18 20:30N 70°02' E 018°50'510.6
2018-Apr-18 20:00N 69°58' E 018°40'510.6
2018-Apr-18 19:30N 69°54' E 018°29'0 0.0
2018-Apr-18 19:00N 69°54' E 018°29'0 0.0
2018-Apr-18 18:30N 69°54' E 018°29'1 1.2
2018-Apr-18 18:00N 69°53' E 018°28'510.4
2018-Apr-18 17:30N 69°51' E 018°14'510.5
2018-Apr-18 17:00N 69°46' E 018°11'510.7
2018-Apr-18 16:30N 69°42' E 018°02'510.8
2018-Apr-18 16:00N 69°38' E 017°51'611.2
2018-Apr-18 15:30N 69°33' E 017°59'510.9
2018-Apr-18 15:00N 69°28' E 018°06'510.6
2018-Apr-18 14:30N 69°23' E 018°05'510.1
2018-Apr-18 14:00N 69°18' E 017°58'510.5
2018-Apr-18 13:29N 69°13' E 017°59'4 8.0
2018-Apr-18 12:59N 69°10' E 017°53'5 9.9
2018-Apr-18 12:30N 69°09' E 017°39'0 0.0
2018-Apr-18 12:00N 69°09' E 017°39'3 5.2
2018-Apr-18 11:30N 69°09' E 017°46'510.5
2018-Apr-18 11:00N 69°11' E 018°00'5 9.5
2018-Apr-18 10:30N 69°16' E 017°58'510.0
2018-Apr-18 10:00N 69°20' E 018°03'510.4
2018-Apr-18 09:30N 69°25' E 018°07'3 6.3
2018-Apr-18 09:00N 69°28' E 018°04'0 0.0
2018-Apr-18 08:29N 69°28' E 018°04'0 0.0
2018-Apr-18 07:59N 69°28' E 018°04'0 0.0
2018-Apr-18 07:30N 69°28' E 018°04'3 6.0
2018-Apr-18 07:00N 69°26' E 018°09'2 4.0
2018-Apr-18 06:30N 69°24' E 018°07'510.1
2018-Apr-18 05:59N 69°19' E 018°01'5 9.9
2018-Apr-18 05:30N 69°15' E 017°58'4 8.4
2018-Apr-18 04:59N 69°10' E 017°58'510.4
2018-Apr-18 04:30N 69°09' E 017°44'3 6.4
2018-Apr-18 04:00N 69°08' E 017°36'510.5
2018-Apr-18 03:30N 69°05' E 017°24'510.5
2018-Apr-18 02:59N 69°00' E 017°15'510.6
2018-Apr-18 02:29N 68°56' E 017°06'510.2
2018-Apr-18 02:00N 68°51' E 017°07'510.5
2018-Apr-18 01:30N 68°46' E 017°11'510.3
2018-Apr-18 00:59N 68°44' E 016°58'1 2.8
2018-Apr-18 00:30N 68°44' E 016°54'1 1.1
2018-Apr-17 23:59N 68°43' E 016°53'4 8.9
2018-Apr-17 23:30N 68°46' E 016°43'4 7.5
2018-Apr-17 22:59N 68°48' E 016°34'0 0.0
2018-Apr-17 22:30N 68°48' E 016°34'0 0.0
2018-Apr-17 22:00N 68°48' E 016°34'1 2.0
2018-Apr-17 21:29N 68°49' E 016°35'510.6
2018-Apr-17 21:00N 68°54' E 016°40'3 5.7
2018-Apr-17 20:30N 68°56' E 016°43'0 0.5
2018-Apr-17 19:59N 68°56' E 016°43'0 0.8
2018-Apr-17 19:30N 68°56' E 016°42'4 8.3
2018-Apr-17 19:00N 68°52' E 016°35'5 9.5
2018-Apr-17 18:28N 68°54' E 016°22'510.1
2018-Apr-17 18:00N 68°57' E 016°11'510.5
2018-Apr-17 17:30N 68°58' E 015°58'510.4
2018-Apr-17 16:59N 68°59' E 015°43'5 9.4
2018-Apr-17 16:29N 68°55' E 015°35'510.2
2018-Apr-17 16:00N 68°50' E 015°29'510.8
2018-Apr-17 15:30N 68°45' E 015°26'610.6
2018-Apr-17 14:58N 68°40' E 015°24'510.7
2018-Apr-17 14:28N 68°36' E 015°13'510.3
2018-Apr-17 13:59N 68°34' E 015°00'1 2.4
2018-Apr-17 13:30N 68°34' E 014°57'0 0.0
2018-Apr-17 13:00N 68°34' E 014°57'0 0.0
2018-Apr-17 12:29N 68°34' E 014°57'0 0.0
2018-Apr-17 12:00N 68°34' E 014°57'0 0.0
2018-Apr-17 11:30N 68°34' E 014°57'0 0.0
2018-Apr-17 11:00N 68°34' E 014°57'0 0.0
2018-Apr-17 10:30N 68°34' E 014°57'0 0.0
2018-Apr-17 09:59N 68°34' E 014°57'0 0.0
2018-Apr-17 09:30N 68°34' E 014°57'0 0.0
2018-Apr-17 09:00N 68°34' E 014°57'2 3.2
2018-Apr-17 08:30N 68°34' E 015°01'611.0
2018-Apr-17 08:00N 68°36' E 015°15'510.2
2018-Apr-17 07:30N 68°38' E 015°29'0 0.1
2018-Apr-17 06:59N 68°38' E 015°29'0 0.0
2018-Apr-17 06:30N 68°38' E 015°29'3 5.3
2018-Apr-17 06:00N 68°37' E 015°22'510.8
2018-Apr-17 05:30N 68°34' E 015°10'610.8
2018-Apr-17 04:59N 68°31' E 014°57'0 0.3
2018-Apr-17 04:30N 68°31' E 014°57'4 7.3
2018-Apr-17 04:00N 68°30' E 015°06'4 7.6
2018-Apr-17 03:30N 68°26' E 015°10'611.1
2018-Apr-17 03:00N 68°22' E 015°03'1 2.2
2018-Apr-17 02:30N 68°20' E 015°02'0 0.0
2018-Apr-17 02:00N 68°20' E 015°02'2 4.4
2018-Apr-17 01:29N 68°19' E 014°58'3 6.3
2018-Apr-17 01:00N 68°16' E 015°02'611.2
2018-Apr-17 00:29N 68°20' E 015°14'3 6.8
2018-Apr-17 00:00N 68°20' E 015°23'0 0.0
2018-Apr-16 23:30N 68°20' E 015°23'0 0.2
2018-Apr-16 23:00N 68°21' E 015°23'4 8.9
2018-Apr-16 22:30N 68°19' E 015°12'610.8
2018-Apr-16 22:00N 68°15' E 015°00'4 8.2
2018-Apr-16 21:30N 68°19' E 014°60'510.8
2018-Apr-16 21:00N 68°24' E 015°07'510.9
2018-Apr-16 20:30N 68°29' E 015°13'510.7
2018-Apr-16 20:00N 68°33' E 015°03'3 5.4
2018-Apr-16 19:30N 68°34' E 014°57'0 0.0
2018-Apr-16 18:59N 68°34' E 014°57'0 0.0
2018-Apr-16 18:30N 68°34' E 014°57'0 0.0
2018-Apr-16 18:00N 68°34' E 014°57'0 0.0
2018-Apr-16 17:30N 68°34' E 014°57'0 0.0
2018-Apr-16 17:00N 68°35' E 014°57'0 0.0
2018-Apr-16 16:30N 68°34' E 014°57'0 0.0
2018-Apr-16 16:00N 68°34' E 014°57'0 0.0
2018-Apr-16 15:30N 68°34' E 014°57'0 0.0
2018-Apr-16 15:00N 68°34' E 014°57'0 0.0
2018-Apr-16 14:30N 68°34' E 014°57'0 0.0
2018-Apr-16 14:00N 68°34' E 014°57'0 0.0
2018-Apr-16 13:30N 68°34' E 014°57'0 0.0
2018-Apr-16 13:00N 68°34' E 014°57'0 0.0
2018-Apr-16 12:29N 68°34' E 014°57'0 0.0
2018-Apr-16 11:59N 68°34' E 014°57'0 0.0
2018-Apr-16 11:30N 68°34' E 014°57'0 0.0
2018-Apr-16 11:00N 68°34' E 014°57'0 0.0
2018-Apr-16 10:30N 68°34' E 014°57'0 0.0
2018-Apr-16 09:59N 68°34' E 014°57'0 0.0
2018-Apr-16 09:29N 68°34' E 014°57'0 0.0
2018-Apr-16 09:00N 68°34' E 014°57'0 0.0
2018-Apr-16 08:28N 68°34' E 014°57'0 0.0
2018-Apr-16 07:59N 68°34' E 014°57'0 0.0
2018-Apr-16 07:29N 68°34' E 014°57'0 0.0
2018-Apr-16 06:59N 68°34' E 014°57'0 0.0
2018-Apr-16 06:29N 68°34' E 014°57'0 0.0
2018-Apr-16 05:59N 68°34' E 014°57'0 0.0
2018-Apr-16 05:30N 68°34' E 014°57'1 1.7
2018-Apr-16 05:00N 68°34' E 014°55'0 0.0
2018-Apr-16 04:30N 68°34' E 014°55'0 0.0
2018-Apr-16 04:00N 68°34' E 014°55'0 0.0
2018-Apr-16 03:30N 68°34' E 014°55'0 0.0
2018-Apr-16 03:00N 68°34' E 014°55'0 0.0
2018-Apr-16 02:30N 68°34' E 014°55'0 0.0
2018-Apr-16 02:00N 68°34' E 014°55'0 0.0
2018-Apr-16 01:30N 68°34' E 014°55'0 0.0
2018-Apr-16 01:00N 68°34' E 014°55'0 0.0
2018-Apr-16 00:30N 68°34' E 014°55'0 0.0
2018-Apr-16 00:00N 68°34' E 014°55'0 0.0
2018-Apr-15 23:30N 68°34' E 014°55'0 0.0
2018-Apr-15 23:00N 68°34' E 014°55'0 0.0
2018-Apr-15 22:29N 68°34' E 014°55'0 0.0
2018-Apr-15 22:00N 68°34' E 014°55'0 0.0
2018-Apr-15 21:30N 68°34' E 014°55'0 0.0
2018-Apr-15 21:00N 68°34' E 014°55'0 0.0
2018-Apr-15 20:29N 68°34' E 014°55'0 0.0
2018-Apr-15 20:00N 68°34' E 014°55'0 0.0
2018-Apr-15 19:30N 68°34' E 014°55'0 0.0
2018-Apr-15 19:00N 68°34' E 014°55'0 0.0
2018-Apr-15 18:30N 68°34' E 014°55'0 0.0
2018-Apr-15 18:00N 68°34' E 014°55'0 0.0
2018-Apr-15 17:30N 68°34' E 014°55'0 0.0
2018-Apr-15 17:00N 68°34' E 014°55'0 0.0
2018-Apr-15 16:29N 68°34' E 014°55'0 0.0
2018-Apr-15 16:00N 68°34' E 014°55'0 0.0
2018-Apr-15 15:30N 68°34' E 014°55'0 0.0
2018-Apr-15 15:00N 68°34' E 014°55'0 0.0
2018-Apr-15 14:30N 68°34' E 014°55'0 0.0
2018-Apr-15 14:00N 68°34' E 014°55'0 0.0
2018-Apr-15 13:30N 68°34' E 014°55'0 0.0
2018-Apr-15 13:00N 68°34' E 014°55'0 0.0
2018-Apr-15 12:30N 68°34' E 014°55'0 0.0
2018-Apr-15 12:00N 68°34' E 014°55'0 0.0
2018-Apr-15 11:30N 68°34' E 014°55'0 0.0
2018-Apr-15 10:59N 68°34' E 014°55'0 0.0
2018-Apr-15 10:28N 68°34' E 014°55'0 0.0
2018-Apr-15 10:00N 68°34' E 014°55'0 0.0
2018-Apr-15 09:29N 68°34' E 014°55'0 0.0
2018-Apr-15 08:59N 68°34' E 014°55'0 0.0
2018-Apr-15 08:29N 68°34' E 014°55'0 0.0
2018-Apr-15 08:00N 68°34' E 014°55'0 0.0
2018-Apr-15 07:30N 68°34' E 014°55'0 0.0
2018-Apr-15 07:00N 68°34' E 014°55'0 0.0
2018-Apr-15 06:30N 68°34' E 014°55'0 0.0
2018-Apr-15 06:00N 68°34' E 014°55'0 0.0
2018-Apr-15 05:30N 68°34' E 014°55'0 0.0
2018-Apr-15 05:00N 68°34' E 014°55'0 0.0
2018-Apr-15 04:30N 68°34' E 014°55'0 0.0
2018-Apr-15 04:00N 68°34' E 014°55'0 0.0
2018-Apr-15 03:30N 68°34' E 014°55'0 0.0
2018-Apr-15 03:00N 68°34' E 014°55'0 0.0
2018-Apr-15 02:30N 68°34' E 014°55'0 0.0
2018-Apr-15 01:59N 68°34' E 014°55'0 0.0
2018-Apr-15 01:30N 68°34' E 014°55'0 0.0
2018-Apr-15 01:00N 68°34' E 014°55'0 0.0
2018-Apr-15 00:30N 68°34' E 014°55'0 0.0
2018-Apr-15 00:00N 68°34' E 014°55'0 0.0
2018-Apr-14 23:30N 68°34' E 014°55'0 0.0
2018-Apr-14 23:00N 68°34' E 014°55'0 0.0
2018-Apr-14 22:30N 68°34' E 014°55'0 0.0
2018-Apr-14 22:00N 68°34' E 014°55'0 0.0
2018-Apr-14 21:29N 68°34' E 014°55'0 0.0
2018-Apr-14 20:58N 68°34' E 014°55'0 0.0
2018-Apr-14 20:30N 68°34' E 014°55'0 0.0
2018-Apr-14 19:59N 68°34' E 014°55'0 0.0
2018-Apr-14 19:29N 68°34' E 014°55'0 0.0
2018-Apr-14 19:00N 68°34' E 014°55'0 0.0
2018-Apr-14 18:30N 68°34' E 014°55'0 0.0
2018-Apr-14 18:00N 68°34' E 014°55'0 0.0
2018-Apr-14 17:30N 68°34' E 014°55'0 0.0
2018-Apr-14 17:00N 68°34' E 014°55'0 0.0
2018-Apr-14 16:30N 68°34' E 014°55'0 0.0
2018-Apr-14 16:00N 68°34' E 014°55'0 0.0
2018-Apr-14 15:30N 68°34' E 014°55'0 0.0
2018-Apr-14 15:00N 68°34' E 014°55'0 0.0
2018-Apr-14 14:30N 68°34' E 014°55'0 0.0
2018-Apr-14 14:00N 68°34' E 014°55'0 0.0
2018-Apr-14 13:29N 68°34' E 014°55'0 0.0
2018-Apr-14 13:00N 68°34' E 014°55'0 0.0
2018-Apr-14 12:30N 68°34' E 014°55'0 0.0
2018-Apr-14 11:59N 68°34' E 014°55'0 0.0
2018-Apr-14 11:30N 68°34' E 014°55'0 0.0
2018-Apr-14 11:00N 68°34' E 014°55'0 0.0
2018-Apr-14 10:30N 68°34' E 014°55'0 0.0
2018-Apr-14 10:00N 68°34' E 014°55'0 0.0
2018-Apr-14 09:30N 68°34' E 014°55'0 0.0
2018-Apr-14 09:00N 68°34' E 014°55'0 0.0
2018-Apr-14 08:30N 68°34' E 014°55'0 0.0
2018-Apr-14 08:00N 68°34' E 014°55'0 0.0
2018-Apr-14 07:30N 68°34' E 014°55'0 0.0
2018-Apr-14 07:00N 68°34' E 014°55'0 0.0
2018-Apr-14 06:30N 68°34' E 014°55'0 0.0
2018-Apr-14 06:00N 68°34' E 014°55'0 0.0
2018-Apr-14 05:30N 68°34' E 014°55'0 0.0
2018-Apr-14 05:00N 68°34' E 014°55'0 0.0
2018-Apr-14 04:30N 68°34' E 014°55'0 0.0
2018-Apr-14 04:00N 68°34' E 014°55'0 0.0
2018-Apr-14 03:30N 68°34' E 014°55'0 0.0
2018-Apr-14 03:00N 68°34' E 014°55'0 0.0
2018-Apr-14 02:30N 68°34' E 014°55'0 0.0
2018-Apr-14 02:00N 68°34' E 014°55'0 0.0
2018-Apr-14 01:30N 68°34' E 014°55'0 0.0
2018-Apr-14 01:00N 68°34' E 014°55'0 0.0
2018-Apr-14 00:30N 68°34' E 014°55'0 0.0
2018-Apr-14 00:00N 68°34' E 014°55'0 0.0
2018-Apr-13 23:29N 68°34' E 014°55'0 0.0
2018-Apr-13 23:00N 68°34' E 014°55'0 0.0
2018-Apr-13 22:30N 68°34' E 014°55'0 0.0
2018-Apr-13 22:00N 68°34' E 014°55'0 0.0
2018-Apr-13 21:30N 68°34' E 014°55'0 0.0
2018-Apr-13 21:00N 68°34' E 014°55'0 0.0
2018-Apr-13 20:30N 68°34' E 014°55'0 0.0
2018-Apr-13 20:00N 68°34' E 014°55'0 0.0
2018-Apr-13 19:30N 68°34' E 014°55'0 0.0
2018-Apr-13 18:59N 68°34' E 014°55'0 0.0
2018-Apr-13 18:30N 68°34' E 014°55'0 0.0
2018-Apr-13 18:00N 68°34' E 014°55'0 0.0
2018-Apr-13 17:30N 68°34' E 014°55'0 0.0
2018-Apr-13 17:00N 68°34' E 014°55'0 0.0
2018-Apr-13 16:29N 68°34' E 014°55'0 0.0
2018-Apr-13 16:00N 68°34' E 014°55'0 0.0
2018-Apr-13 15:30N 68°34' E 014°55'0 0.0
2018-Apr-13 15:00N 68°34' E 014°55'0 0.0
2018-Apr-13 14:30N 68°34' E 014°55'0 0.0
2018-Apr-13 14:00N 68°34' E 014°55'0 0.0
2018-Apr-13 13:30N 68°34' E 014°55'0 0.0
2018-Apr-13 13:00N 68°34' E 014°55'0 0.0
2018-Apr-13 12:29N 68°34' E 014°55'0 0.0
2018-Apr-13 11:59N 68°34' E 014°55'0 0.0
2018-Apr-13 11:29N 68°34' E 014°55'3 6.8
2018-Apr-13 11:00N 68°35' E 015°04'511.1
2018-Apr-13 10:30N 68°37' E 015°17'510.6
2018-Apr-13 10:00N 68°41' E 015°26'510.2
2018-Apr-13 09:30N 68°46' E 015°26'610.9
2018-Apr-13 08:59N 68°52' E 015°30'510.9
2018-Apr-13 08:30N 68°57' E 015°36'5 9.5
2018-Apr-13 08:00N 68°59' E 015°48'610.9
2018-Apr-13 07:29N 68°58' E 016°03'511.1
2018-Apr-13 07:00N 68°56' E 016°17'611.2
2018-Apr-13 06:30N 68°52' E 016°30'5 9.8
2018-Apr-13 06:00N 68°55' E 016°41'1 1.3
2018-Apr-13 05:30N 68°56' E 016°42'1 1.2
2018-Apr-13 04:59N 68°56' E 016°43'0 0.0
2018-Apr-13 04:30N 68°56' E 016°43'4 8.5
2018-Apr-13 04:00N 68°57' E 016°55'611.1
2018-Apr-13 03:30N 68°59' E 017°09'510.7
2018-Apr-13 03:00N 69°03' E 017°20'510.7
2018-Apr-13 02:30N 69°06' E 017°32'611.1
2018-Apr-13 01:59N 69°09' E 017°46'511.1
2018-Apr-13 01:30N 69°11' E 017°60'510.0
2018-Apr-13 01:00N 69°16' E 017°58'510.0
2018-Apr-13 00:30N 69°21' E 018°04'510.0
2018-Apr-12 23:59N 69°26' E 018°07'5 9.5
2018-Apr-12 23:30N 69°29' E 018°14'611.1
2018-Apr-12 23:00N 69°32' E 018°29'511.0
2018-Apr-12 22:30N 69°33' E 018°44'5 9.5
2018-Apr-12 22:00N 69°37' E 018°54'611.0
2018-Apr-12 21:29N 69°41' E 019°02'510.6
2018-Apr-12 21:00N 69°46' E 019°10'510.7
2018-Apr-12 20:30N 69°48' E 019°24'510.7
2018-Apr-12 20:00N 69°50' E 019°38'510.7
2018-Apr-12 19:29N 69°53' E 019°52'510.9
2018-Apr-12 19:00N 69°56' E 020°04'510.6
2018-Apr-12 18:30N 69°59' E 020°17'510.7
2018-Apr-12 18:00N 70°01' E 020°32'611.0
2018-Apr-12 17:30N 70°03' E 020°47'510.8
2018-Apr-12 16:59N 70°07' E 020°59'510.9
2018-Apr-12 16:29N 70°11' E 021°06'510.5
2018-Apr-12 16:00N 70°15' E 021°15'611.0
2018-Apr-12 15:30N 70°19' E 021°27'510.8
2018-Apr-12 15:00N 70°23' E 021°39'4 8.9
2018-Apr-12 14:30N 70°23' E 021°52'510.0
2018-Apr-12 13:59N 70°20' E 022°06'5 9.9
2018-Apr-12 13:29N 70°18' E 022°19'510.3
2018-Apr-12 13:00N 70°16' E 022°32'510.7
2018-Apr-12 12:30N 70°14' E 022°47'510.8
2018-Apr-12 12:00N 70°14' E 023°03'510.9
2018-Apr-12 11:30N 70°14' E 023°19'0 0.6
2018-Apr-12 10:59N 70°14' E 023°20'2 4.2
2018-Apr-12 10:30N 70°14' E 023°14'611.1
2018-Apr-12 10:00N 70°14' E 022°57'611.2
2018-Apr-12 09:30N 70°15' E 022°41'611.4
2018-Apr-12 09:00N 70°17' E 022°25'611.4
2018-Apr-12 08:29N 70°20' E 022°10'611.5
2018-Apr-12 08:00N 70°22' E 021°55'610.9
2018-Apr-12 07:30N 70°24' E 021°40'611.3
2018-Apr-12 06:58N 70°19' E 021°28'511.2
2018-Apr-12 06:29N 70°16' E 021°16'5 9.8
2018-Apr-12 06:00N 70°12' E 021°09'510.5
2018-Apr-12 05:30N 70°06' E 021°08'510.7
2018-Apr-12 05:00N 70°01' E 021°06'510.7
2018-Apr-12 04:30N 69°57' E 020°57'511.0
2018-Apr-12 04:00N 69°53' E 020°45'2 3.5
2018-Apr-12 03:30N 69°52' E 020°42'0 0.1
2018-Apr-12 02:59N 69°52' E 020°42'3 6.3
2018-Apr-12 02:30N 69°54' E 020°45'510.8
2018-Apr-12 02:00N 69°57' E 020°32'611.1
2018-Apr-12 01:30N 69°59' E 020°16'611.6
2018-Apr-12 01:00N 69°56' E 020°03'611.4
2018-Apr-12 00:29N 69°52' E 019°49'611.2
2018-Apr-11 23:59N 69°49' E 019°34'511.4
2018-Apr-11 23:30N 69°48' E 019°19'611.3
2018-Apr-11 22:58N 69°44' E 019°05'511.1
2018-Apr-11 22:30N 69°39' E 018°59'510.7
2018-Apr-11 22:00N 69°35' E 018°50'510.8
2018-Apr-11 21:30N 69°33' E 018°36'611.4
2018-Apr-11 21:00N 69°30' E 018°21'611.1
2018-Apr-11 20:30N 69°28' E 018°07'611.1
2018-Apr-11 20:00N 69°22' E 018°06'510.4
2018-Apr-11 19:30N 69°18' E 017°58'510.8
2018-Apr-11 19:00N 69°12' E 018°00'5 9.2
2018-Apr-11 18:30N 69°09' E 017°50'4 8.0
2018-Apr-11 18:00N 69°09' E 017°39'0 0.6
2018-Apr-11 17:29N 69°08' E 017°39'511.1
2018-Apr-11 16:59N 69°05' E 017°26'510.9
2018-Apr-11 16:29N 69°01' E 017°17'511.2
2018-Apr-11 16:00N 68°57' E 017°07'611.2
2018-Apr-11 15:30N 68°52' E 016°58'611.1
2018-Apr-11 14:59N 68°48' E 016°50'511.0
2018-Apr-11 14:30N 68°43' E 016°43'611.2
2018-Apr-11 14:00N 68°38' E 016°35'510.5
2018-Apr-11 13:29N 68°33' E 016°28'510.6
2018-Apr-11 13:00N 68°33' E 016°14'610.9
2018-Apr-11 12:30N 68°28' E 016°07'511.0
2018-Apr-11 12:00N 68°23' E 016°02'510.5
2018-Apr-11 11:30N 68°18' E 016°02'610.9
2018-Apr-11 11:00N 68°13' E 016°08'610.9
2018-Apr-11 10:29N 68°08' E 016°14'4 7.2
2018-Apr-11 10:00N 68°05' E 016°19'0 0.0
2018-Apr-11 09:30N 68°05' E 016°19'2 4.8
2018-Apr-11 09:00N 68°07' E 016°16'4 8.5
2018-Apr-11 08:30N 68°10' E 016°09'0 0.0
2018-Apr-11 08:00N 68°10' E 016°09'0 0.0
2018-Apr-11 07:30N 68°10' E 016°09'2 3.1
2018-Apr-11 07:00N 68°12' E 016°10'510.6
2018-Apr-11 06:30N 68°16' E 016°02'511.0
2018-Apr-11 06:00N 68°17' E 015°48'611.0
2018-Apr-11 05:30N 68°18' E 015°33'4 8.2
2018-Apr-11 05:00N 68°20' E 015°23'0 0.0
2018-Apr-11 04:30N 68°20' E 015°23'2 4.1
2018-Apr-11 04:00N 68°22' E 015°18'1 2.0
2018-Apr-11 03:30N 68°23' E 015°19'3 5.0
2018-Apr-11 02:59N 68°20' E 015°15'510.8
2018-Apr-11 02:30N 68°17' E 015°05'3 5.2
2018-Apr-11 01:59N 68°18' E 014°58'3 6.3
2018-Apr-11 01:30N 68°20' E 015°02'0 0.0
2018-Apr-11 01:00N 68°20' E 015°02'0 0.0
2018-Apr-11 00:29N 68°20' E 015°02'4 8.8
2018-Apr-10 23:59N 68°25' E 015°07'510.0
2018-Apr-10 23:29N 68°29' E 015°13'510.4
2018-Apr-10 23:00N 68°31' E 014°60'1 2.0
2018-Apr-10 22:30N 68°31' E 014°57'0 0.0
2018-Apr-10 22:00N 68°31' E 014°57'4 7.2
2018-Apr-10 21:30N 68°34' E 015°02'2 4.1
2018-Apr-10 21:00N 68°34' E 014°57'0 0.0
2018-Apr-10 20:30N 68°34' E 014°57'0 0.0
2018-Apr-10 20:00N 68°34' E 014°57'0 0.0
2018-Apr-10 19:30N 68°34' E 014°57'0 0.0
2018-Apr-10 19:00N 68°34' E 014°57'0 0.0
2018-Apr-10 18:30N 68°34' E 014°57'0 0.0
2018-Apr-10 18:00N 68°34' E 014°57'0 0.0
2018-Apr-10 17:30N 68°34' E 014°57'1 1.7
2018-Apr-10 17:00N 68°34' E 014°55'0 0.0
2018-Apr-10 16:29N 68°34' E 014°55'0 0.0
2018-Apr-10 16:00N 68°34' E 014°55'0 0.0
2018-Apr-10 15:30N 68°34' E 014°55'0 0.0
2018-Apr-10 15:00N 68°34' E 014°55'0 0.0
2018-Apr-10 14:30N 68°34' E 014°55'0 0.0
2018-Apr-10 14:00N 68°34' E 014°55'0 0.0
2018-Apr-10 13:30N 68°34' E 014°55'0 0.0
2018-Apr-10 13:00N 68°34' E 014°55'0 0.0
2018-Apr-10 12:30N 68°34' E 014°55'0 0.0
2018-Apr-10 12:00N 68°34' E 014°55'0 0.0
2018-Apr-10 11:30N 68°34' E 014°55'0 0.0
2018-Apr-10 11:00N 68°34' E 014°55'0 0.0
2018-Apr-10 10:30N 68°34' E 014°55'0 0.0
2018-Apr-10 10:00N 68°34' E 014°55'0 0.0
2018-Apr-10 09:29N 68°34' E 014°55'0 0.0
2018-Apr-10 09:00N 68°34' E 014°55'0 0.0
2018-Apr-10 08:30N 68°34' E 014°55'0 0.0
2018-Apr-10 08:00N 68°34' E 014°55'0 0.0
2018-Apr-10 07:30N 68°34' E 014°55'0 0.0
2018-Apr-10 07:00N 68°34' E 014°55'0 0.0
2018-Apr-10 06:30N 68°34' E 014°55'0 0.0
2018-Apr-10 05:59N 68°34' E 014°55'0 0.0
2018-Apr-10 05:30N 68°34' E 014°55'0 0.0
2018-Apr-10 05:00N 68°34' E 014°55'0 0.0
2018-Apr-10 04:29N 68°34' E 014°55'0 0.0
2018-Apr-10 03:59N 68°34' E 014°55'0 0.0
2018-Apr-10 03:30N 68°34' E 014°55'0 0.0
2018-Apr-10 03:00N 68°34' E 014°55'0 0.0
2018-Apr-10 02:30N 68°34' E 014°55'0 0.0
2018-Apr-10 02:00N 68°34' E 014°55'0 0.0
2018-Apr-10 01:30N 68°34' E 014°55'0 0.0
2018-Apr-10 01:00N 68°34' E 014°55'0 0.0
2018-Apr-10 00:30N 68°34' E 014°55'0 0.0
2018-Apr-10 00:00N 68°34' E 014°55'0 0.0
2018-Apr-09 23:30N 68°34' E 014°55'0 0.0
2018-Apr-09 23:00N 68°34' E 014°55'  

Dump ship's entire track history